createdAt,value
2023-04-21T00:00:21.890Z,33.09
2023-04-21T00:01:21.911Z,33.17
2023-04-21T00:02:22.027Z,33.23
2023-04-21T00:03:22.158Z,33.19
2023-04-21T00:05:22.413Z,33.11
2023-04-21T00:06:22.169Z,33.11
2023-04-21T00:07:22.202Z,33.06
2023-04-21T00:08:22.269Z,33.03
2023-04-21T00:09:22.307Z,33.11
2023-04-21T00:10:22.370Z,33.02
2023-04-21T00:11:22.410Z,33.12
2023-04-21T00:12:22.435Z,33.06
2023-04-21T00:13:22.484Z,33.06
2023-04-21T00:14:22.552Z,33.00
2023-04-21T00:15:22.607Z,33.07
2023-04-21T00:16:22.675Z,33.09
2023-04-21T00:17:22.739Z,33.06
2023-04-21T00:18:22.742Z,32.96
2023-04-21T00:19:22.769Z,32.95
2023-04-21T00:20:22.857Z,33.00
2023-04-21T00:21:22.906Z,32.93
2023-04-21T00:22:22.960Z,32.93
2023-04-21T00:23:23.000Z,32.91
2023-04-21T00:24:23.051Z,32.87
2023-04-21T00:25:23.094Z,32.96
2023-04-21T00:26:23.186Z,33.04
2023-04-21T00:27:23.225Z,32.90
2023-04-21T00:28:23.260Z,32.95
2023-04-21T00:29:23.310Z,32.93
2023-04-21T00:30:23.341Z,32.87
2023-04-21T00:31:23.426Z,32.90
2023-04-21T00:32:23.505Z,32.93
2023-04-21T00:33:23.513Z,32.91
2023-04-21T00:34:23.550Z,32.84
2023-04-21T00:35:23.621Z,32.86
2023-04-21T00:36:23.688Z,32.79
2023-04-21T00:37:23.701Z,32.86
2023-04-21T00:38:23.765Z,32.87
2023-04-21T00:39:23.807Z,32.84
2023-04-21T00:40:23.874Z,32.86
2023-04-21T00:41:23.902Z,32.87
2023-04-21T00:42:23.928Z,32.83
2023-04-21T00:43:24.015Z,32.83
2023-04-21T00:44:24.037Z,32.76
2023-04-21T00:45:24.093Z,32.84
2023-04-21T00:46:24.173Z,32.81
2023-04-21T00:47:24.239Z,32.84
2023-04-21T00:48:24.286Z,32.79
2023-04-21T00:49:24.302Z,32.86
2023-04-21T00:50:24.449Z,32.80
2023-04-21T00:51:24.362Z,32.75
2023-04-21T00:52:24.420Z,32.71
2023-04-21T00:53:24.488Z,32.80
2023-04-21T00:54:24.547Z,32.80
2023-04-21T00:55:24.587Z,32.75
2023-04-21T00:56:24.636Z,32.74
2023-04-21T00:57:24.684Z,32.84
2023-04-21T00:58:24.733Z,32.68
2023-04-21T00:59:24.775Z,32.67
2023-04-21T01:00:24.807Z,32.65
2023-04-21T01:01:24.910Z,32.60
2023-04-21T01:02:25.003Z,32.67
2023-04-21T01:03:25.216Z,32.60
2023-04-21T01:04:25.048Z,32.61
2023-04-21T01:05:25.084Z,32.65
2023-04-21T01:06:25.145Z,32.63
2023-04-21T01:07:25.198Z,32.70
2023-04-21T01:08:25.247Z,32.67
2023-04-21T01:09:25.283Z,32.71
2023-04-21T01:10:25.343Z,32.58
2023-04-21T01:11:25.402Z,32.58
2023-04-21T01:12:25.466Z,32.58
2023-04-21T01:13:25.456Z,32.61
2023-04-21T01:14:25.511Z,32.64
2023-04-21T01:15:25.575Z,32.62
2023-04-21T01:16:25.724Z,32.55
2023-04-21T01:17:25.672Z,32.61
2023-04-21T01:18:25.739Z,32.57
2023-04-21T01:19:25.881Z,32.62
2023-04-21T01:20:25.872Z,32.57
2023-04-21T01:21:25.891Z,32.48
2023-04-21T01:22:25.928Z,32.53
2023-04-21T01:23:25.998Z,32.58
2023-04-21T01:24:26.073Z,32.52
2023-04-21T01:25:26.106Z,32.55
2023-04-21T01:26:26.145Z,32.53
2023-04-21T01:27:26.220Z,32.53
2023-04-21T01:28:26.236Z,32.58
2023-04-21T01:29:26.301Z,32.51
2023-04-21T01:30:26.344Z,32.53
2023-04-21T01:31:26.444Z,32.49
2023-04-21T01:32:26.530Z,32.49
2023-04-21T01:33:26.513Z,32.45
2023-04-21T01:34:26.580Z,32.48
2023-04-21T01:35:26.605Z,32.40
2023-04-21T01:36:26.699Z,32.42
2023-04-21T01:37:26.751Z,32.51
2023-04-21T01:38:26.749Z,32.45
2023-04-21T01:39:26.831Z,32.49
2023-04-21T01:40:26.911Z,32.45
2023-04-21T01:41:26.932Z,32.45
2023-04-21T01:42:26.981Z,32.39
2023-04-21T01:43:27.060Z,32.41
2023-04-21T01:44:27.089Z,32.43
2023-04-21T01:45:27.159Z,32.41
2023-04-21T01:46:27.231Z,32.42
2023-04-21T01:47:27.261Z,32.43
2023-04-21T01:48:27.327Z,32.36
2023-04-21T01:49:27.346Z,32.35
2023-04-21T01:50:27.398Z,32.41
2023-04-21T01:51:27.477Z,32.37
2023-04-21T01:52:27.517Z,32.37
2023-04-21T01:53:27.617Z,32.38
2023-04-21T01:54:27.634Z,32.39
2023-04-21T01:55:27.704Z,32.32
2023-04-21T01:56:27.787Z,32.32
2023-04-21T01:57:27.783Z,32.33
2023-04-21T01:58:27.840Z,32.33
2023-04-21T01:59:27.943Z,32.32
2023-04-21T02:00:27.961Z,32.33
2023-04-21T02:01:28.046Z,32.32
2023-04-21T02:02:28.213Z,32.29
2023-04-21T02:03:28.325Z,32.35
2023-04-21T02:04:28.234Z,32.30
2023-04-21T02:05:28.276Z,32.33
2023-04-21T02:06:28.328Z,32.32
2023-04-21T02:07:28.363Z,32.33
2023-04-21T02:08:28.445Z,32.27
2023-04-21T02:09:28.519Z,32.22
2023-04-21T02:10:28.565Z,32.26
2023-04-21T02:11:28.639Z,32.25
2023-04-21T02:12:28.687Z,32.26
2023-04-21T02:13:28.751Z,32.24
2023-04-21T02:14:28.794Z,32.27
2023-04-21T02:15:28.853Z,32.24
2023-04-21T02:16:28.957Z,32.20
2023-04-21T02:17:28.954Z,32.17
2023-04-21T02:18:28.996Z,32.16
2023-04-21T02:19:29.077Z,32.29
2023-04-21T02:20:29.118Z,32.19
2023-04-21T02:21:29.231Z,32.17
2023-04-21T02:22:29.260Z,32.17
2023-04-21T02:23:29.304Z,32.11
2023-04-21T02:24:29.378Z,32.16
2023-04-21T02:25:29.435Z,32.19
2023-04-21T02:26:29.505Z,32.23
2023-04-21T02:27:29.557Z,32.20
2023-04-21T02:28:29.566Z,32.17
2023-04-21T02:29:29.665Z,32.17
2023-04-21T02:30:29.694Z,32.16
2023-04-21T02:31:29.826Z,32.11
2023-04-21T02:32:29.875Z,32.17
2023-04-21T02:33:29.906Z,32.10
2023-04-21T02:34:29.930Z,32.13
2023-04-21T02:35:29.969Z,32.10
2023-04-21T02:36:30.066Z,32.16
2023-04-21T02:37:30.091Z,32.17
2023-04-21T02:38:30.157Z,32.14
2023-04-21T02:39:30.222Z,32.11
2023-04-21T02:40:30.270Z,32.13
2023-04-21T02:41:30.333Z,32.14
2023-04-21T02:42:30.400Z,32.10
2023-04-21T02:43:30.449Z,32.08
2023-04-21T02:44:30.526Z,32.13
2023-04-21T02:45:30.586Z,32.08
2023-04-21T02:46:30.717Z,32.08
2023-04-21T02:47:30.717Z,32.08
2023-04-21T02:48:30.764Z,32.00
2023-04-21T02:49:30.827Z,32.10
2023-04-21T02:50:30.877Z,32.05
2023-04-21T02:51:30.985Z,32.13
2023-04-21T02:52:30.985Z,32.07
2023-04-21T02:53:31.057Z,32.07
2023-04-21T02:54:31.111Z,32.01
2023-04-21T02:55:31.151Z,32.01
2023-04-21T02:56:31.238Z,32.05
2023-04-21T02:57:31.318Z,32.01
2023-04-21T02:58:31.357Z,32.01
2023-04-21T02:59:31.420Z,31.98
2023-04-21T03:00:31.523Z,32.00
2023-04-21T03:01:31.574Z,31.95
2023-04-21T03:02:31.724Z,31.94
2023-04-21T03:03:31.890Z,32.00
2023-04-21T03:04:31.782Z,32.04
2023-04-21T03:05:31.781Z,32.03
2023-04-21T03:06:31.854Z,31.97
2023-04-21T03:07:31.928Z,31.99
2023-04-21T03:08:31.997Z,32.01
2023-04-21T03:09:32.048Z,31.97
2023-04-21T03:10:32.090Z,32.01
2023-04-21T03:11:32.176Z,31.92
2023-04-21T03:12:32.219Z,31.86
2023-04-21T03:13:32.252Z,31.92
2023-04-21T03:14:32.344Z,31.92
2023-04-21T03:15:32.395Z,31.94
2023-04-21T03:16:32.504Z,31.86
2023-04-21T03:17:33.188Z,31.98
2023-04-21T03:18:32.583Z,31.94
2023-04-21T03:19:32.638Z,31.95
2023-04-21T03:20:32.683Z,31.89
2023-04-21T03:21:32.748Z,31.95
2023-04-21T03:22:32.788Z,31.95
2023-04-21T03:23:32.829Z,31.91
2023-04-21T03:24:32.893Z,31.92
2023-04-21T03:25:32.957Z,31.92
2023-04-21T03:26:33.011Z,31.94
2023-04-21T03:27:33.057Z,31.95
2023-04-21T03:28:33.089Z,31.88
2023-04-21T03:29:33.155Z,31.97
2023-04-21T03:30:33.225Z,31.95
2023-04-21T03:31:33.269Z,31.81
2023-04-21T03:32:33.392Z,31.86
2023-04-21T03:33:33.382Z,31.91
2023-04-21T03:34:33.430Z,31.88
2023-04-21T03:35:33.515Z,31.86
2023-04-21T03:36:33.561Z,31.84
2023-04-21T03:37:33.596Z,31.85
2023-04-21T03:38:33.684Z,31.85
2023-04-21T03:39:33.742Z,31.79
2023-04-21T03:40:33.798Z,31.84
2023-04-21T03:41:33.820Z,31.85
2023-04-21T03:42:33.914Z,31.81
2023-04-21T03:43:33.938Z,31.85
2023-04-21T03:44:33.997Z,31.78
2023-04-21T03:45:34.106Z,31.88
2023-04-21T03:46:34.302Z,31.85
2023-04-21T03:47:34.206Z,31.79
2023-04-21T03:48:34.213Z,31.79
2023-04-21T03:49:34.264Z,31.80
2023-04-21T03:50:34.324Z,31.82
2023-04-21T03:51:34.374Z,31.82
2023-04-21T03:52:34.386Z,31.81
2023-04-21T03:53:34.502Z,31.75
2023-04-21T03:54:34.482Z,31.86
2023-04-21T03:55:34.567Z,31.78
2023-04-21T03:56:34.671Z,31.75
2023-04-21T03:57:34.645Z,31.78
2023-04-21T03:58:34.730Z,31.78
2023-04-21T03:59:34.759Z,31.82
2023-04-21T04:00:34.829Z,31.75
2023-04-21T04:01:34.921Z,31.75
2023-04-21T04:02:35.063Z,31.72
2023-04-21T04:03:35.076Z,31.70
2023-04-21T04:04:35.365Z,31.77
2023-04-21T04:05:36.100Z,31.75
2023-04-21T04:06:34.994Z,31.75
2023-04-21T04:07:35.006Z,31.67
2023-04-21T04:08:34.954Z,31.77
2023-04-21T04:09:34.983Z,31.66
2023-04-21T04:10:34.970Z,31.72
2023-04-21T04:11:34.973Z,31.73
2023-04-21T04:12:34.947Z,31.72
2023-04-21T04:13:34.940Z,31.75
2023-04-21T04:14:34.936Z,31.71
2023-04-21T04:15:35.071Z,31.70
2023-04-21T04:16:35.214Z,31.72
2023-04-21T04:17:35.146Z,31.69
2023-04-21T04:18:35.125Z,31.65
2023-04-21T04:19:35.148Z,31.66
2023-04-21T04:20:35.176Z,31.60
2023-04-21T04:21:35.203Z,31.67
2023-04-21T04:22:35.188Z,31.62
2023-04-21T04:23:35.210Z,31.66
2023-04-21T04:24:35.220Z,31.60
2023-04-21T04:25:35.220Z,31.63
2023-04-21T04:26:35.283Z,31.63
2023-04-21T04:27:35.282Z,31.65
2023-04-21T04:28:35.317Z,31.60
2023-04-21T04:29:35.270Z,31.66
2023-04-21T04:30:35.340Z,31.60
2023-04-21T04:31:35.301Z,31.56
2023-04-21T04:32:35.329Z,31.59
2023-04-21T04:33:35.264Z,31.60
2023-04-21T04:34:35.328Z,31.63
2023-04-21T04:35:35.349Z,31.62
2023-04-21T04:36:35.397Z,31.57
2023-04-21T04:37:35.377Z,31.57
2023-04-21T04:38:35.380Z,31.57
2023-04-21T04:39:35.408Z,31.60
2023-04-21T04:40:35.512Z,31.62
2023-04-21T04:41:35.538Z,31.62
2023-04-21T04:42:35.502Z,31.65
2023-04-21T04:43:35.499Z,31.52
2023-04-21T04:44:35.523Z,31.57
2023-04-21T04:45:35.558Z,31.58
2023-04-21T04:46:35.676Z,31.56
2023-04-21T04:47:35.548Z,31.56
2023-04-21T04:48:35.578Z,31.58
2023-04-21T04:49:35.574Z,31.59
2023-04-21T04:50:35.616Z,31.57
2023-04-21T04:51:35.658Z,31.60
2023-04-21T04:52:35.698Z,31.46
2023-04-21T04:53:35.714Z,31.48
2023-04-21T04:54:35.795Z,31.51
2023-04-21T04:55:35.768Z,31.50
2023-04-21T04:56:35.782Z,31.52
2023-04-21T04:57:35.842Z,31.50
2023-04-21T04:58:35.809Z,31.57
2023-04-21T04:59:35.851Z,31.53
2023-04-21T05:00:35.895Z,31.47
2023-04-21T05:01:35.950Z,31.47
2023-04-21T05:02:36.162Z,31.47
2023-04-21T05:03:36.188Z,31.47
2023-04-21T05:04:36.045Z,31.51
2023-04-21T05:05:36.031Z,31.52
2023-04-21T05:06:36.017Z,31.49
2023-04-21T05:07:36.119Z,31.52
2023-04-21T05:08:36.054Z,31.56
2023-04-21T05:09:36.079Z,31.53
2023-04-21T05:10:36.129Z,31.52
2023-04-21T05:11:36.201Z,31.50
2023-04-21T05:12:36.214Z,31.48
2023-04-21T05:13:39.107Z,31.60
2023-04-21T05:14:36.275Z,31.59
2023-04-21T05:15:36.250Z,31.59
2023-04-21T05:16:36.272Z,31.49
2023-04-21T05:17:36.261Z,31.59
2023-04-21T05:18:36.253Z,31.56
2023-04-21T05:19:36.265Z,31.50
2023-04-21T05:20:36.248Z,31.57
2023-04-21T05:21:36.236Z,31.53
2023-04-21T05:22:36.206Z,31.59
2023-04-21T05:23:36.204Z,31.58
2023-04-21T05:24:36.233Z,31.56
2023-04-21T05:25:36.198Z,31.60
2023-04-21T05:26:36.209Z,31.58
2023-04-21T05:27:36.202Z,31.57
2023-04-21T05:28:36.193Z,31.54
2023-04-21T05:29:36.158Z,31.59
2023-04-21T05:30:36.125Z,31.60
2023-04-21T05:31:36.200Z,31.67
2023-04-21T05:32:36.208Z,31.62
2023-04-21T05:33:36.145Z,31.62
2023-04-21T05:34:36.126Z,31.66
2023-04-21T05:35:38.008Z,31.62
2023-04-21T05:36:36.092Z,31.69
2023-04-21T05:37:36.111Z,31.99
2023-04-21T05:38:36.097Z,31.90
2023-04-21T05:39:36.079Z,32.03
2023-04-21T05:40:36.069Z,32.16
2023-04-21T05:41:36.482Z,32.73
2023-04-21T05:42:36.150Z,32.56
2023-04-21T05:43:36.192Z,32.49
2023-04-21T05:44:36.210Z,32.53
2023-04-21T05:45:36.245Z,32.75
2023-04-21T05:46:36.357Z,33.03
2023-04-21T05:47:36.421Z,33.19
2023-04-21T05:48:36.408Z,33.19
2023-04-21T05:49:36.500Z,33.35
2023-04-21T05:50:36.521Z,33.63
2023-04-21T05:51:36.976Z,33.68
2023-04-21T05:52:36.633Z,33.70
2023-04-21T05:53:36.691Z,33.66
2023-04-21T05:54:36.680Z,34.26
2023-04-21T05:55:36.770Z,34.56
2023-04-21T05:56:36.804Z,34.42
2023-04-21T05:57:36.845Z,34.38
2023-04-21T05:58:36.915Z,34.57
2023-04-21T05:59:36.936Z,34.49
2023-04-21T06:00:36.944Z,34.67
2023-04-21T06:01:36.983Z,34.66
2023-04-21T06:02:37.289Z,34.88
2023-04-21T06:03:37.134Z,35.12
2023-04-21T06:04:37.116Z,35.11
2023-04-21T06:05:37.193Z,35.08
2023-04-21T06:06:37.241Z,35.08
2023-04-21T06:07:37.198Z,35.15
2023-04-21T06:08:37.157Z,35.17
2023-04-21T06:09:37.182Z,35.25
2023-04-21T06:10:37.185Z,35.37
2023-04-21T06:11:37.203Z,35.34
2023-04-21T06:12:37.232Z,35.43
2023-04-21T06:13:39.051Z,35.57
2023-04-21T06:14:37.362Z,35.68
2023-04-21T06:15:37.394Z,35.67
2023-04-21T06:16:37.387Z,35.73
2023-04-21T06:17:37.399Z,35.83
2023-04-21T06:18:37.389Z,35.92
2023-04-21T06:19:37.361Z,36.05
2023-04-21T06:20:37.351Z,36.14
2023-04-21T06:21:37.328Z,36.05
2023-04-21T06:22:37.375Z,36.17
2023-04-21T06:23:37.338Z,36.22
2023-04-21T06:24:37.329Z,36.35
2023-04-21T06:25:37.319Z,36.41
2023-04-21T06:26:37.336Z,36.45
2023-04-21T06:27:37.362Z,36.67
2023-04-21T06:28:37.331Z,36.63
2023-04-21T06:29:37.347Z,36.73
2023-04-21T06:30:37.393Z,36.81
2023-04-21T06:31:37.425Z,36.81
2023-04-21T06:32:37.435Z,36.92
2023-04-21T06:33:37.399Z,36.98
2023-04-21T06:34:37.433Z,37.15
2023-04-21T06:35:37.450Z,37.16
2023-04-21T06:36:37.466Z,37.22
2023-04-21T06:37:37.461Z,37.37
2023-04-21T06:38:37.497Z,37.40
2023-04-21T06:39:37.492Z,37.53
2023-04-21T06:40:37.521Z,37.60
2023-04-21T06:41:37.533Z,37.67
2023-04-21T06:42:37.572Z,37.67
2023-04-21T06:43:37.559Z,37.79
2023-04-21T06:44:37.588Z,37.81
2023-04-21T06:45:37.618Z,37.99
2023-04-21T06:46:37.745Z,37.84
2023-04-21T06:47:38.010Z,37.90
2023-04-21T06:48:37.739Z,38.11
2023-04-21T06:49:37.764Z,38.34
2023-04-21T06:50:37.806Z,38.13
2023-04-21T06:51:37.842Z,37.89
2023-04-21T06:52:37.985Z,38.00
2023-04-21T06:53:37.891Z,38.69
2023-04-21T06:54:37.921Z,38.33
2023-04-21T06:55:37.957Z,38.17
2023-04-21T06:56:37.976Z,38.15
2023-04-21T06:57:38.012Z,37.98
2023-04-21T06:58:38.040Z,37.94
2023-04-21T06:59:38.005Z,38.09
2023-04-21T07:00:38.133Z,38.00
2023-04-21T07:01:38.156Z,38.07
2023-04-21T07:02:38.198Z,38.03
2023-04-21T07:03:38.240Z,38.06
2023-04-21T07:04:38.178Z,38.08
2023-04-21T07:05:38.203Z,38.12
2023-04-21T07:06:38.215Z,38.06
2023-04-21T07:07:38.224Z,38.08
2023-04-21T07:08:38.280Z,38.13
2023-04-21T07:09:38.325Z,38.28
2023-04-21T07:10:38.401Z,38.32
2023-04-21T07:11:38.421Z,38.37
2023-04-21T07:12:38.505Z,38.43
2023-04-21T07:13:38.588Z,38.47
2023-04-21T07:14:38.624Z,38.51
2023-04-21T07:15:38.664Z,38.64
2023-04-21T07:16:38.840Z,38.77
2023-04-21T07:17:39.105Z,38.88
2023-04-21T07:18:38.850Z,38.96
2023-04-21T07:19:38.989Z,39.14
2023-04-21T07:20:38.970Z,39.05
2023-04-21T07:21:39.005Z,39.10
2023-04-21T07:22:39.072Z,39.17
2023-04-21T07:23:39.126Z,39.14
2023-04-21T07:24:39.192Z,39.36
2023-04-21T07:25:39.265Z,39.38
2023-04-21T07:26:39.292Z,39.28
2023-04-21T07:27:39.359Z,39.26
2023-04-21T07:28:39.432Z,39.55
2023-04-21T07:29:39.520Z,39.39
2023-04-21T07:30:39.549Z,39.44
2023-04-21T07:31:39.610Z,39.53
2023-04-21T07:32:39.635Z,39.55
2023-04-21T07:33:39.646Z,39.57
2023-04-21T07:34:39.728Z,39.71
2023-04-21T07:35:39.758Z,39.71
2023-04-21T07:36:39.797Z,39.78
2023-04-21T07:37:39.850Z,39.69
2023-04-21T07:38:39.927Z,39.72
2023-04-21T07:39:39.960Z,39.69
2023-04-21T07:40:40.000Z,39.79
2023-04-21T07:41:40.030Z,39.56
2023-04-21T07:42:40.541Z,39.60
2023-04-21T07:43:40.143Z,39.46
2023-04-21T07:44:40.181Z,39.43
2023-04-21T07:45:40.216Z,39.28
2023-04-21T07:46:40.376Z,39.18
2023-04-21T07:47:40.539Z,39.29
2023-04-21T07:48:40.318Z,39.27
2023-04-21T07:49:40.403Z,39.14
2023-04-21T07:50:40.465Z,39.32
2023-04-21T07:51:40.466Z,39.39
2023-04-21T07:52:40.535Z,39.53
2023-04-21T07:53:40.546Z,39.61
2023-04-21T07:54:40.565Z,39.51
2023-04-21T07:55:40.607Z,39.27
2023-04-21T07:56:40.662Z,39.23
2023-04-21T07:57:41.039Z,39.20
2023-04-21T07:58:40.796Z,39.18
2023-04-21T07:59:40.763Z,39.20
2023-04-21T08:00:40.800Z,39.24
2023-04-21T08:01:40.827Z,39.33
2023-04-21T08:02:41.161Z,39.39
2023-04-21T08:03:41.084Z,39.36
2023-04-21T08:04:41.031Z,39.33
2023-04-21T08:05:41.635Z,39.24
2023-04-21T08:06:41.153Z,39.23
2023-04-21T08:07:41.100Z,39.21
2023-04-21T08:08:41.061Z,39.24
2023-04-21T08:09:41.180Z,38.30
2023-04-21T08:10:41.173Z,36.60
2023-04-21T08:11:41.211Z,37.12
2023-04-21T08:12:41.205Z,37.37
2023-04-21T08:13:41.352Z,37.13
2023-04-21T08:14:42.206Z,36.57
2023-04-21T08:15:41.151Z,35.41
2023-04-21T08:16:41.202Z,36.20
2023-04-21T08:17:41.192Z,35.66
2023-04-21T08:18:41.125Z,36.09
2023-04-21T08:19:41.145Z,35.17
2023-04-21T08:20:41.240Z,35.86
2023-04-21T08:21:41.118Z,35.21
2023-04-21T08:22:41.214Z,35.40
2023-04-21T08:23:41.118Z,34.86
2023-04-21T08:24:41.127Z,34.64
2023-04-21T08:25:41.091Z,34.43
2023-04-21T08:26:41.121Z,33.96
2023-04-21T08:27:41.074Z,34.59
2023-04-21T08:28:41.084Z,34.47
2023-04-21T08:29:41.078Z,33.71
2023-04-21T08:30:41.138Z,34.35
2023-04-21T08:31:41.090Z,34.21
2023-04-21T08:32:41.095Z,34.16
2023-04-21T08:33:49.837Z,33.99
2023-04-21T08:34:42.046Z,33.06
2023-04-21T08:35:47.960Z,33.96
2023-04-21T08:36:42.080Z,32.82
2023-04-21T08:37:41.031Z,33.59
2023-04-21T08:38:41.004Z,33.58
2023-04-21T08:39:40.986Z,33.27
2023-04-21T08:40:40.991Z,33.07
2023-04-21T08:41:41.029Z,33.29
2023-04-21T08:42:41.089Z,33.23
2023-04-21T08:43:40.981Z,33.19
2023-04-21T08:44:40.973Z,33.14
2023-04-21T08:45:41.013Z,33.20
2023-04-21T08:46:40.922Z,33.17
2023-04-21T08:47:41.040Z,33.18
2023-04-21T08:48:40.931Z,33.08
2023-04-21T08:49:40.907Z,33.15
2023-04-21T08:50:40.925Z,33.16
2023-04-21T08:51:40.933Z,33.06
2023-04-21T08:52:40.963Z,32.98
2023-04-21T08:53:41.002Z,32.88
2023-04-21T08:54:41.066Z,32.86
2023-04-21T08:55:41.120Z,33.24
2023-04-21T08:56:41.178Z,33.13
2023-04-21T08:57:41.271Z,33.45
2023-04-21T08:58:41.309Z,33.68
2023-04-21T08:59:41.371Z,34.07
2023-04-21T09:00:41.411Z,34.06
2023-04-21T09:01:41.492Z,34.14
2023-04-21T09:02:41.654Z,34.30
2023-04-21T09:03:41.668Z,34.31
2023-04-21T09:04:42.074Z,34.31
2023-04-21T09:05:43.158Z,34.41
2023-04-21T09:06:41.629Z,34.26
2023-04-21T09:07:41.593Z,34.38
2023-04-21T09:08:41.601Z,34.39
2023-04-21T09:09:41.596Z,34.42
2023-04-21T09:10:41.610Z,34.47
2023-04-21T09:11:41.614Z,34.41
2023-04-21T09:12:41.622Z,34.38
2023-04-21T09:13:41.633Z,34.31
2023-04-21T09:14:41.594Z,34.23
2023-04-21T09:15:42.634Z,34.30
2023-04-21T09:16:41.604Z,34.34
2023-04-21T09:17:41.623Z,34.29
2023-04-21T09:18:41.577Z,34.37
2023-04-21T09:19:41.570Z,34.35
2023-04-21T09:20:41.583Z,34.34
2023-04-21T09:21:41.562Z,34.31
2023-04-21T09:22:41.541Z,34.31
2023-04-21T09:23:41.563Z,34.25
2023-04-21T09:24:41.567Z,34.29
2023-04-21T09:25:41.534Z,34.29
2023-04-21T09:26:41.540Z,34.26
2023-04-21T09:27:41.526Z,34.27
2023-04-21T09:28:41.505Z,34.24
2023-04-21T09:29:41.502Z,34.21
2023-04-21T09:30:41.526Z,34.24
2023-04-21T09:31:41.716Z,34.16
2023-04-21T09:32:41.541Z,34.15
2023-04-21T09:33:53.916Z,34.20
2023-04-21T09:34:42.491Z,34.19
2023-04-21T09:35:41.468Z,34.19
2023-04-21T09:36:41.473Z,34.18
2023-04-21T09:37:41.453Z,34.11
2023-04-21T09:38:41.452Z,34.10
2023-04-21T09:39:52.691Z,34.16
2023-04-21T09:40:42.473Z,34.09
2023-04-21T09:41:41.480Z,33.35
2023-04-21T09:42:43.874Z,32.90
2023-04-21T09:43:41.441Z,32.21
2023-04-21T09:44:53.281Z,32.99
2023-04-21T09:45:42.426Z,32.70
2023-04-21T09:46:41.453Z,32.85
2023-04-21T09:47:41.470Z,32.78
2023-04-21T09:48:41.620Z,33.32
2023-04-21T09:49:41.364Z,33.30
2023-04-21T09:51:20.967Z,33.42
2023-04-21T09:52:41.339Z,33.55
2023-04-21T09:53:41.616Z,33.49
2023-04-21T09:54:41.374Z,33.56
2023-04-21T09:55:41.321Z,33.59
2023-04-21T09:56:41.316Z,33.76
2023-04-21T09:57:41.320Z,33.84
2023-04-21T09:58:41.332Z,33.83
2023-04-21T09:59:41.334Z,33.82
2023-04-21T10:00:41.296Z,33.93
2023-04-21T10:01:41.388Z,33.71
2023-04-21T10:02:41.479Z,33.80
2023-04-21T10:03:41.598Z,33.48
2023-04-21T10:04:41.728Z,33.56
2023-04-21T10:05:42.810Z,33.51
2023-04-21T10:06:41.572Z,33.41
2023-04-21T10:07:41.583Z,33.46
2023-04-21T10:08:41.656Z,33.61
2023-04-21T10:09:41.720Z,33.26
2023-04-21T10:10:41.693Z,33.12
2023-04-21T10:11:41.699Z,32.95
2023-04-21T10:12:41.714Z,33.21
2023-04-21T10:13:41.793Z,33.28
2023-04-21T10:14:41.786Z,33.33
2023-04-21T10:15:41.876Z,33.42
2023-04-21T10:16:41.894Z,33.29
2023-04-21T10:17:41.938Z,33.32
2023-04-21T10:18:41.942Z,32.89
2023-04-21T10:19:41.930Z,32.80
2023-04-21T10:20:41.979Z,33.02
2023-04-21T10:21:41.970Z,32.90
2023-04-21T10:22:42.031Z,33.13
2023-04-21T10:23:42.056Z,33.25
2023-04-21T10:24:42.112Z,33.35
2023-04-21T10:25:42.124Z,33.64
2023-04-21T10:26:42.139Z,33.72
2023-04-21T10:27:42.171Z,33.82
2023-04-21T10:28:42.212Z,33.80
2023-04-21T10:29:55.390Z,33.65
2023-04-21T10:30:43.220Z,33.41
2023-04-21T10:31:42.255Z,33.58
2023-04-21T10:32:42.424Z,33.18
2023-04-21T10:33:42.209Z,33.02
2023-04-21T10:34:42.189Z,33.00
2023-04-21T10:35:42.218Z,33.03
2023-04-21T10:36:42.174Z,32.52
2023-04-21T10:37:42.217Z,32.57
2023-04-21T10:38:42.596Z,30.70
2023-04-21T10:39:42.148Z,31.48
2023-04-21T10:40:43.693Z,30.51
2023-04-21T10:41:42.131Z,30.46
2023-04-21T10:42:42.188Z,30.39
2023-04-21T10:43:42.606Z,30.76
2023-04-21T10:44:42.275Z,30.91
2023-04-21T10:45:42.258Z,30.91
2023-04-21T10:46:42.344Z,31.13
2023-04-21T10:47:42.348Z,31.29
2023-04-21T10:48:42.348Z,31.51
2023-04-21T10:49:42.358Z,31.67
2023-04-21T10:50:42.378Z,31.78
2023-04-21T10:51:42.395Z,31.87
2023-04-21T10:52:42.426Z,31.90
2023-04-21T10:53:42.442Z,31.76
2023-04-21T10:54:42.456Z,31.64
2023-04-21T10:55:42.563Z,31.84
2023-04-21T10:56:42.453Z,32.02
2023-04-21T10:57:42.478Z,32.19
2023-04-21T10:58:42.485Z,32.12
2023-04-21T10:59:42.527Z,32.16
2023-04-21T11:00:42.606Z,32.50
2023-04-21T11:01:42.562Z,32.04
2023-04-21T11:02:44.261Z,32.01
2023-04-21T11:03:42.749Z,32.62
2023-04-21T11:04:42.684Z,32.11
2023-04-21T11:05:42.558Z,32.33
2023-04-21T11:06:42.608Z,32.31
2023-04-21T11:07:42.562Z,32.41
2023-04-21T11:08:42.596Z,32.95
2023-04-21T11:09:42.618Z,32.83
2023-04-21T11:10:42.602Z,32.96
2023-04-21T11:11:42.621Z,33.26
2023-04-21T11:12:42.592Z,33.46
2023-04-21T11:13:42.601Z,33.52
2023-04-21T11:14:42.571Z,33.52
2023-04-21T11:15:42.609Z,33.29
2023-04-21T11:16:42.629Z,33.22
2023-04-21T11:17:42.604Z,33.25
2023-04-21T11:18:42.676Z,33.02
2023-04-21T11:19:42.616Z,32.96
2023-04-21T11:20:42.601Z,32.03
2023-04-21T11:21:42.612Z,32.38
2023-04-21T11:22:42.645Z,29.93
2023-04-21T11:23:42.675Z,29.65
2023-04-21T11:24:42.700Z,29.74
2023-04-21T11:25:42.825Z,29.45
2023-04-21T11:26:42.762Z,30.68
2023-04-21T11:27:42.801Z,30.40
2023-04-21T11:28:43.157Z,30.30
2023-04-21T11:29:42.869Z,30.24
2023-04-21T11:30:42.945Z,30.16
2023-04-21T11:31:42.935Z,30.22
2023-04-21T11:32:42.986Z,30.36
2023-04-21T11:33:43.001Z,30.42
2023-04-21T11:34:43.029Z,30.57
2023-04-21T11:35:43.086Z,30.77
2023-04-21T11:36:43.077Z,30.94
2023-04-21T11:37:43.128Z,30.97
2023-04-21T11:38:43.130Z,31.00
2023-04-21T11:39:43.160Z,31.05
2023-04-21T11:40:43.175Z,31.04
2023-04-21T11:41:43.223Z,31.07
2023-04-21T11:42:43.302Z,31.13
2023-04-21T11:43:43.295Z,31.14
2023-04-21T11:44:43.382Z,31.18
2023-04-21T11:45:43.407Z,31.12
2023-04-21T11:46:43.463Z,31.20
2023-04-21T11:47:43.458Z,31.14
2023-04-21T11:48:43.536Z,31.21
2023-04-21T11:49:43.534Z,31.23
2023-04-21T11:50:43.536Z,31.24
2023-04-21T11:51:43.594Z,31.29
2023-04-21T11:52:43.641Z,31.30
2023-04-21T11:53:43.666Z,31.30
2023-04-21T11:54:43.694Z,31.29
2023-04-21T11:55:43.754Z,31.33
2023-04-21T11:56:43.771Z,31.34
2023-04-21T11:57:43.822Z,31.33
2023-04-21T11:58:43.865Z,31.32
2023-04-21T11:59:43.912Z,31.33
2023-04-21T12:00:43.981Z,31.36
2023-04-21T12:01:44.011Z,31.33
2023-04-21T12:02:44.141Z,31.35
2023-04-21T12:03:44.200Z,31.36
2023-04-21T12:04:44.245Z,31.40
2023-04-21T12:05:44.183Z,31.42
2023-04-21T12:06:44.206Z,31.45
2023-04-21T12:07:44.250Z,31.49
2023-04-21T12:08:44.281Z,31.45
2023-04-21T12:09:44.305Z,31.52
2023-04-21T12:10:44.384Z,31.55
2023-04-21T12:11:44.375Z,31.55
2023-04-21T12:12:44.421Z,31.52
2023-04-21T12:13:44.492Z,31.56
2023-04-21T12:14:44.506Z,31.59
2023-04-21T12:15:44.552Z,31.59
2023-04-21T12:16:44.696Z,31.62
2023-04-21T12:17:45.760Z,31.65
2023-04-21T12:18:44.701Z,31.64
2023-04-21T12:19:44.765Z,31.72
2023-04-21T12:20:44.780Z,31.68
2023-04-21T12:21:44.837Z,31.74
2023-04-21T12:22:44.859Z,31.69
2023-04-21T12:23:44.903Z,31.69
2023-04-21T12:24:44.960Z,31.71
2023-04-21T12:25:44.984Z,31.65
2023-04-21T12:26:45.055Z,31.68
2023-04-21T12:27:45.084Z,31.68
2023-04-21T12:28:45.135Z,31.77
2023-04-21T12:29:45.145Z,31.77
2023-04-21T12:30:45.210Z,31.80
2023-04-21T12:31:45.273Z,31.74
2023-04-21T12:32:45.294Z,31.74
2023-04-21T12:33:45.390Z,31.77
2023-04-21T12:34:45.380Z,31.81
2023-04-21T12:35:45.442Z,31.80
2023-04-21T12:36:45.479Z,31.72
2023-04-21T12:37:45.523Z,31.78
2023-04-21T12:38:45.564Z,31.78
2023-04-21T12:39:45.637Z,31.77
2023-04-21T12:40:45.666Z,31.83
2023-04-21T12:41:45.688Z,31.71
2023-04-21T12:42:45.749Z,31.77
2023-04-21T12:43:45.853Z,31.78
2023-04-21T12:44:45.849Z,31.76
2023-04-21T12:45:45.956Z,31.81
2023-04-21T12:46:45.923Z,31.84
2023-04-21T12:47:47.006Z,31.84
2023-04-21T12:48:46.051Z,31.80
2023-04-21T12:49:46.056Z,31.81
2023-04-21T12:50:46.096Z,31.81
2023-04-21T12:51:46.162Z,31.81
2023-04-21T12:52:46.207Z,31.77
2023-04-21T12:53:46.278Z,31.81
2023-04-21T12:54:46.309Z,31.74